createdAt,value
2022-11-15T00:02:31.993Z,39.50
2022-11-15T00:05:18.030Z,45.70
2022-11-15T00:08:04.119Z,43.60
2022-11-15T00:11:16.595Z,42.07
2022-11-15T00:14:05.351Z,43.93
2022-11-15T00:16:51.622Z,41.00
2022-11-15T00:19:37.565Z,42.83
2022-11-15T00:22:23.698Z,41.40
2022-11-15T00:25:10.190Z,45.30
2022-11-15T00:28:00.788Z,43.07
2022-11-15T00:30:46.922Z,40.67
2022-11-15T00:33:33.452Z,43.73
2022-11-15T00:36:19.747Z,45.37
2022-11-15T00:39:06.810Z,44.67
2022-11-15T00:41:52.914Z,48.80
2022-11-15T00:44:38.833Z,43.00
2022-11-15T00:47:24.935Z,44.03
2022-11-15T00:50:14.988Z,46.83
2022-11-15T00:53:01.354Z,48.53
2022-11-15T00:55:48.495Z,46.07
2022-11-15T00:58:34.320Z,44.70
2022-11-15T01:01:20.727Z,42.43
2022-11-15T01:04:07.304Z,44.70
2022-11-15T01:06:53.259Z,47.93
2022-11-15T01:09:39.527Z,47.60
2022-11-15T01:12:25.529Z,45.67
2022-11-15T01:15:11.510Z,46.57
2022-11-15T01:17:57.735Z,46.90
2022-11-15T01:20:44.563Z,46.27
2022-11-15T01:23:30.745Z,47.17
2022-11-15T01:26:17.420Z,47.13
2022-11-15T01:29:03.569Z,49.23
2022-11-15T01:31:49.661Z,46.00
2022-11-15T01:34:35.691Z,45.87
2022-11-15T01:37:21.472Z,50.13
2022-11-15T01:40:07.855Z,46.07
2022-11-15T01:42:53.685Z,44.30
2022-11-15T01:45:39.855Z,44.33
2022-11-15T01:48:32.492Z,47.07
2022-11-15T01:51:20.465Z,43.13
2022-11-15T01:54:11.517Z,45.77
2022-11-15T01:57:06.167Z,46.43
2022-11-15T01:59:52.110Z,43.27
2022-11-15T02:02:39.168Z,45.50
2022-11-15T02:05:24.984Z,48.93
2022-11-15T02:08:20.836Z,46.40
2022-11-15T02:11:10.132Z,45.43
2022-11-15T02:13:58.554Z,46.03
2022-11-15T02:17:08.032Z,46.57
2022-11-15T02:20:28.365Z,46.10
2022-11-15T02:23:45.192Z,45.43
2022-11-15T02:26:37.188Z,44.10
2022-11-15T02:29:44.293Z,45.60
2022-11-15T02:32:29.998Z,43.53
2022-11-15T02:35:29.547Z,42.80
2022-11-15T02:38:26.700Z,44.47
2022-11-15T02:41:21.145Z,47.40
2022-11-15T02:44:22.873Z,46.13
2022-11-15T02:47:14.788Z,45.83
2022-11-15T02:50:04.221Z,44.57
2022-11-15T02:52:51.757Z,45.97
2022-11-15T02:55:51.392Z,49.83
2022-11-15T02:58:59.478Z,43.70
2022-11-15T03:02:01.878Z,44.80
2022-11-15T03:05:00.863Z,43.87
2022-11-15T03:08:03.535Z,44.00
2022-11-15T03:11:20.639Z,44.87
2022-11-15T03:14:31.739Z,44.60
2022-11-15T03:17:23.742Z,47.13
2022-11-15T03:20:12.636Z,42.57
2022-11-15T03:23:10.843Z,40.97
2022-11-15T03:26:01.330Z,41.80
2022-11-15T03:29:29.044Z,41.53
2022-11-15T03:32:21.154Z,43.67
2022-11-15T03:35:30.083Z,40.53
2022-11-15T03:38:30.865Z,41.73
2022-11-15T03:41:29.053Z,42.70
2022-11-15T03:44:37.930Z,42.37
2022-11-15T03:47:56.638Z,40.63
2022-11-15T03:50:44.441Z,41.57
2022-11-15T03:53:31.894Z,42.97
2022-11-15T03:56:18.008Z,44.13
2022-11-15T03:59:03.995Z,41.97
2022-11-15T04:01:50.023Z,44.47
2022-11-15T04:04:36.080Z,43.73
2022-11-15T04:07:22.339Z,40.13
2022-11-15T04:10:09.599Z,42.57
2022-11-15T04:12:55.437Z,42.97
2022-11-15T04:15:41.668Z,40.80
2022-11-15T04:18:27.751Z,39.27
2022-11-15T04:21:32.283Z,40.90
2022-11-15T04:24:18.499Z,43.37
2022-11-15T04:27:04.208Z,38.97
2022-11-15T04:29:50.316Z,39.37
2022-11-15T04:32:36.140Z,37.80
2022-11-15T04:35:22.185Z,38.87
2022-11-15T04:38:09.980Z,40.43
2022-11-15T04:40:56.114Z,39.70
2022-11-15T04:43:42.088Z,41.57
2022-11-15T04:46:28.448Z,41.50
2022-11-15T04:49:14.094Z,36.27
2022-11-15T04:51:59.997Z,40.40
2022-11-15T04:54:46.296Z,38.97
2022-11-15T04:57:32.288Z,39.23
2022-11-15T05:00:18.884Z,38.43
2022-11-15T05:03:23.691Z,40.33
2022-11-15T05:06:09.656Z,40.03
2022-11-15T05:08:56.268Z,38.77
2022-11-15T05:11:42.794Z,39.13
2022-11-15T05:14:28.845Z,38.27
2022-11-15T05:17:14.845Z,37.23
2022-11-15T05:20:00.870Z,38.07
2022-11-15T05:22:46.851Z,38.57
2022-11-15T05:25:33.142Z,38.37
2022-11-15T05:28:19.034Z,41.50
2022-11-15T05:31:10.710Z,38.83
2022-11-15T05:33:59.475Z,37.63
2022-11-15T05:36:46.807Z,42.37
2022-11-15T05:39:32.884Z,39.67
2022-11-15T05:42:19.777Z,46.97
2022-11-15T05:45:09.349Z,40.30
2022-11-15T05:47:59.685Z,42.17
2022-11-15T05:50:48.345Z,39.60
2022-11-15T05:53:35.838Z,40.10
2022-11-15T05:56:22.026Z,39.00
2022-11-15T05:59:09.833Z,39.87
2022-11-15T06:01:55.649Z,40.00
2022-11-15T06:04:41.861Z,40.03
2022-11-15T06:07:28.010Z,40.47
2022-11-15T06:10:13.815Z,37.53
2022-11-15T06:13:05.131Z,38.00
2022-11-15T06:15:50.949Z,41.23
2022-11-15T06:18:37.311Z,41.33
2022-11-15T06:21:23.982Z,39.30
2022-11-15T06:24:10.007Z,39.07
2022-11-15T06:26:55.997Z,37.03
2022-11-15T06:29:42.269Z,35.60
2022-11-15T06:32:29.740Z,37.63
2022-11-15T06:35:15.869Z,38.77
2022-11-15T06:38:07.863Z,40.50
2022-11-15T06:40:54.297Z,33.77
2022-11-15T06:43:40.773Z,33.60
2022-11-15T06:46:26.660Z,36.63
2022-11-15T06:49:12.990Z,33.97
2022-11-15T06:51:58.922Z,37.33
2022-11-15T06:54:45.368Z,36.80
2022-11-15T06:57:31.502Z,32.93
2022-11-15T07:00:20.232Z,33.20
2022-11-15T07:03:08.886Z,34.20
2022-11-15T07:06:02.955Z,33.17
2022-11-15T07:08:52.719Z,30.87
2022-11-15T07:11:38.782Z,34.70
2022-11-15T07:14:24.957Z,31.90
2022-11-15T07:17:10.868Z,31.07
2022-11-15T07:19:56.919Z,35.10
2022-11-15T07:22:43.538Z,34.63
2022-11-15T07:25:29.733Z,35.23
2022-11-15T07:28:15.770Z,35.93
2022-11-15T07:31:09.328Z,31.90
2022-11-15T07:33:55.333Z,35.40
2022-11-15T07:36:41.321Z,34.53
2022-11-15T07:39:27.443Z,35.00
2022-11-15T07:42:32.191Z,36.53
2022-11-15T07:45:18.182Z,37.73
2022-11-15T07:48:04.515Z,34.47
2022-11-15T07:50:50.712Z,32.87
2022-11-15T07:53:36.737Z,37.37
2022-11-15T07:56:23.072Z,36.13
2022-11-15T07:59:08.797Z,36.63
2022-11-15T08:01:55.028Z,38.57
2022-11-15T08:04:41.361Z,35.23
2022-11-15T08:07:31.282Z,33.33
2022-11-15T08:10:20.048Z,33.63
2022-11-15T08:13:27.477Z,33.97
2022-11-15T08:16:13.616Z,31.20
2022-11-15T08:18:59.777Z,31.30
2022-11-15T08:21:45.586Z,31.73
2022-11-15T08:24:31.727Z,28.20
2022-11-15T08:27:18.238Z,28.73
2022-11-15T08:30:04.974Z,28.10
2022-11-15T08:32:52.958Z,27.23
2022-11-15T08:35:39.404Z,30.57
2022-11-15T08:38:25.613Z,28.73
2022-11-15T08:41:18.136Z,28.83
2022-11-15T08:44:04.011Z,27.27
2022-11-15T08:46:50.296Z,30.57
2022-11-15T08:49:35.976Z,29.17
2022-11-15T08:52:22.345Z,27.33
2022-11-15T08:55:09.032Z,28.47
2022-11-15T08:57:57.782Z,26.73
2022-11-15T09:00:43.943Z,25.87
2022-11-15T09:03:30.310Z,26.67
2022-11-15T09:06:16.589Z,26.10
2022-11-15T09:09:03.606Z,29.03
2022-11-15T09:11:51.610Z,27.60
2022-11-15T09:14:37.666Z,26.03
2022-11-15T09:17:25.228Z,30.10
2022-11-15T09:20:11.754Z,29.63
2022-11-15T09:23:01.948Z,27.33
2022-11-15T09:25:48.732Z,27.90
2022-11-15T09:28:35.433Z,25.73
2022-11-15T09:31:22.426Z,27.53
2022-11-15T09:34:08.352Z,27.17
2022-11-15T09:36:54.465Z,25.47
2022-11-15T09:39:40.548Z,25.13
2022-11-15T09:43:04.205Z,25.63
2022-11-15T09:46:22.606Z,23.63
2022-11-15T09:49:11.392Z,27.53
2022-11-15T09:51:54.554Z,25.63
2022-11-15T09:54:52.218Z,22.67
2022-11-15T09:57:41.551Z,24.70
2022-11-15T10:00:44.695Z,23.83
2022-11-15T10:03:14.549Z,22.87
2022-11-15T10:05:46.587Z,21.47
2022-11-15T10:08:35.797Z,21.60
2022-11-15T10:14:21.559Z,23.53
2022-11-15T10:16:55.300Z,22.67
2022-11-15T10:19:26.866Z,20.10
2022-11-15T10:22:03.153Z,19.03
2022-11-15T10:24:37.790Z,19.07
2022-11-15T10:27:14.890Z,18.17
2022-11-15T10:29:47.626Z,19.97
2022-11-15T10:32:18.742Z,20.43
2022-11-15T10:34:47.287Z,19.30
2022-11-15T10:37:15.251Z,18.87
2022-11-15T10:39:42.946Z,14.20
2022-11-15T10:42:39.808Z,18.23
2022-11-15T10:45:26.582Z,17.47
2022-11-15T10:47:54.294Z,17.70
2022-11-15T10:50:33.596Z,15.83
2022-11-15T10:53:03.932Z,18.63
2022-11-15T10:55:35.986Z,16.43
2022-11-15T10:58:07.835Z,16.67
2022-11-15T11:00:40.155Z,16.40
2022-11-15T11:03:25.116Z,17.70
2022-11-15T11:06:06.057Z,17.17
2022-11-15T11:08:35.057Z,17.53
2022-11-15T11:11:04.471Z,17.50
2022-11-15T11:13:40.575Z,15.80
2022-11-15T11:16:19.915Z,15.47
2022-11-15T11:19:14.786Z,15.37
2022-11-15T11:22:06.859Z,16.37
2022-11-15T11:24:40.295Z,14.10
2022-11-15T11:27:35.936Z,16.17
2022-11-15T11:30:24.047Z,14.13
2022-11-15T11:33:00.783Z,15.67
2022-11-15T11:35:49.715Z,16.83
2022-11-15T11:38:35.636Z,15.80
2022-11-15T11:41:30.853Z,16.90
2022-11-15T11:44:16.503Z,14.87
2022-11-15T11:47:04.930Z,15.87
2022-11-15T11:49:53.332Z,16.07
2022-11-15T11:52:29.565Z,15.97
2022-11-15T11:55:15.539Z,15.73
2022-11-15T11:58:05.292Z,17.30
2022-11-15T12:00:39.514Z,18.40
2022-11-15T12:03:23.356Z,15.83
2022-11-15T12:06:18.854Z,16.50
2022-11-15T12:08:46.563Z,16.03
2022-11-15T12:11:26.067Z,16.27
2022-11-15T12:13:59.675Z,15.67
2022-11-15T12:16:33.301Z,16.07
2022-11-15T12:19:03.455Z,16.63
2022-11-15T12:22:13.921Z,15.43
2022-11-15T12:25:09.628Z,14.87
2022-11-15T12:27:45.185Z,16.53
2022-11-15T12:30:19.912Z,15.53
2022-11-15T12:32:58.630Z,15.97
2022-11-15T12:35:43.645Z,18.03
2022-11-15T12:38:12.854Z,17.43
2022-11-15T12:41:14.757Z,16.40
2022-11-15T12:43:43.889Z,17.87
2022-11-15T12:46:23.590Z,19.10
2022-11-15T12:48:54.503Z,18.63
2022-11-15T12:51:41.602Z,17.73
2022-11-15T12:54:24.023Z,19.50
2022-11-15T12:57:10.085Z,19.53
2022-11-15T13:00:05.119Z,20.10
2022-11-15T13:02:47.486Z,16.80
2022-11-15T13:05:21.341Z,19.13
2022-11-15T13:07:48.865Z,19.13
2022-11-15T13:10:31.153Z,18.47
2022-11-15T13:13:09.171Z,20.80
2022-11-15T13:15:57.775Z,19.83
2022-11-15T13:18:38.391Z,18.37
2022-11-15T13:21:58.991Z,16.97
2022-11-15T13:24:26.558Z,20.93
2022-11-15T13:26:54.083Z,18.53
2022-11-15T13:29:21.757Z,16.70
2022-11-15T13:31:49.512Z,18.70
2022-11-15T13:37:23.502Z,20.87
2022-11-15T13:39:51.386Z,18.53
2022-11-15T13:42:20.796Z,20.77
2022-11-15T13:45:06.287Z,17.13
2022-11-15T13:47:33.921Z,18.67
2022-11-15T13:50:09.679Z,18.77
2022-11-15T13:52:44.061Z,22.10
2022-11-15T13:55:22.441Z,20.33
2022-11-15T13:58:00.117Z,19.30
2022-11-15T14:00:27.597Z,21.97
2022-11-15T14:02:56.930Z,20.00
2022-11-15T14:05:26.089Z,19.73
2022-11-15T14:08:19.438Z,22.77
2022-11-15T14:10:47.085Z,22.23
2022-11-15T14:13:32.089Z,22.20
2022-11-15T14:16:21.482Z,21.40
2022-11-15T14:18:53.967Z,19.53
2022-11-15T14:21:22.016Z,19.70
2022-11-15T14:23:50.105Z,22.33
2022-11-15T14:26:35.838Z,20.30
2022-11-15T14:29:29.489Z,21.13
2022-11-15T14:32:15.347Z,20.33
2022-11-15T14:34:43.083Z,24.23
2022-11-15T14:37:36.034Z,22.17
2022-11-15T14:40:06.247Z,21.63
2022-11-15T14:42:34.043Z,20.43
2022-11-15T14:45:01.470Z,22.20
2022-11-15T14:47:29.089Z,21.37
2022-11-15T14:49:56.349Z,22.37
2022-11-15T14:52:32.536Z,22.43
2022-11-15T14:55:03.319Z,21.93
2022-11-15T14:57:31.707Z,19.93
2022-11-15T14:59:59.117Z,23.13
2022-11-15T15:02:40.038Z,20.07
2022-11-15T15:05:19.778Z,22.50
2022-11-15T15:07:47.766Z,21.43
2022-11-15T15:10:39.022Z,22.20
2022-11-15T15:13:06.021Z,22.23
2022-11-15T15:15:37.690Z,22.80
2022-11-15T15:18:07.265Z,24.43
2022-11-15T15:23:26.535Z,24.60
2022-11-15T15:25:54.153Z,23.20
2022-11-15T15:28:21.529Z,24.50
2022-11-15T15:30:50.391Z,24.13
2022-11-15T15:33:18.034Z,24.30
2022-11-15T15:35:45.616Z,23.97
2022-11-15T15:38:14.036Z,22.10
2022-11-15T15:40:42.169Z,27.43
2022-11-15T15:43:10.288Z,21.73
2022-11-15T15:45:54.246Z,23.40
2022-11-15T15:48:21.618Z,24.70
2022-11-15T15:50:50.264Z,27.73
2022-11-15T15:53:18.366Z,25.40
2022-11-15T15:55:45.924Z,24.63
2022-11-15T15:58:13.324Z,24.53
2022-11-15T16:00:41.103Z,24.67
2022-11-15T16:03:08.484Z,25.93
2022-11-15T16:05:36.115Z,26.17
2022-11-15T16:08:04.490Z,26.73
2022-11-15T16:10:37.725Z,24.23
2022-11-15T16:13:05.158Z,26.73
2022-11-15T16:15:33.868Z,23.17
2022-11-15T16:18:02.522Z,24.33
2022-11-15T16:20:43.596Z,24.83
2022-11-15T16:23:13.598Z,23.07
2022-11-15T16:25:54.047Z,26.93
2022-11-15T16:28:24.476Z,36.00
2022-11-15T16:31:05.257Z,27.93
2022-11-15T16:33:33.699Z,29.13
2022-11-15T16:36:01.914Z,25.77
2022-11-15T16:38:29.664Z,28.53
2022-11-15T16:40:57.098Z,37.63
2022-11-15T16:43:25.369Z,30.33
2022-11-15T16:45:52.855Z,28.07
2022-11-15T16:48:29.676Z,26.93
2022-11-15T16:50:59.274Z,26.67
2022-11-15T16:53:28.085Z,29.27
2022-11-15T16:55:58.824Z,26.00
2022-11-15T16:58:26.237Z,28.67
2022-11-15T17:00:55.177Z,29.10
2022-11-15T17:03:24.422Z,30.87
2022-11-15T17:05:52.812Z,24.97
2022-11-15T17:08:22.103Z,24.90
2022-11-15T17:10:49.636Z,27.00
2022-11-15T17:13:17.188Z,27.37
2022-11-15T17:15:44.701Z,29.50
2022-11-15T17:18:15.877Z,27.03
2022-11-15T17:20:44.160Z,26.13
2022-11-15T17:23:15.185Z,24.10
2022-11-15T17:25:43.202Z,29.93
2022-11-15T17:28:11.006Z,26.20
2022-11-15T17:30:41.936Z,29.83
2022-11-15T17:33:09.421Z,29.47
2022-11-15T17:35:36.805Z,28.90
2022-11-15T17:38:04.356Z,27.33
2022-11-15T17:40:32.873Z,23.40
2022-11-15T17:43:06.841Z,25.37
2022-11-15T17:45:40.164Z,27.00
2022-11-15T17:48:07.543Z,26.30
2022-11-15T17:50:34.875Z,25.20
2022-11-15T17:53:02.318Z,26.33
2022-11-15T17:55:29.738Z,27.87
2022-11-15T17:57:57.078Z,25.83
2022-11-15T18:00:24.481Z,47.07
2022-11-15T18:02:51.805Z,30.37
2022-11-15T18:05:19.146Z,27.63
2022-11-15T18:07:46.489Z,25.30
2022-11-15T18:10:13.916Z,26.70
2022-11-15T18:12:41.277Z,28.80
2022-11-15T18:15:09.110Z,25.70
2022-11-15T18:17:37.363Z,28.33
2022-11-15T18:20:05.390Z,26.33
2022-11-15T18:22:32.811Z,26.13
2022-11-15T18:25:00.133Z,25.93
2022-11-15T18:27:28.661Z,25.40
2022-11-15T18:29:55.968Z,23.90
2022-11-15T18:32:23.378Z,23.47
2022-11-15T18:34:50.762Z,23.70
2022-11-15T18:37:18.121Z,24.23
2022-11-15T18:39:49.663Z,23.17
2022-11-15T18:42:19.978Z,24.80
2022-11-15T18:44:47.377Z,26.57
2022-11-15T18:47:14.807Z,23.73
2022-11-15T18:49:42.276Z,25.17
2022-11-15T18:52:09.693Z,23.80
2022-11-15T18:54:37.078Z,25.50
2022-11-15T18:57:04.678Z,26.17
2022-11-15T18:59:32.167Z,28.27
2022-11-15T19:01:59.760Z,32.63
2022-11-15T19:04:27.355Z,27.70
2022-11-15T19:06:54.863Z,22.07
2022-11-15T19:09:22.340Z,24.67
2022-11-15T19:11:51.586Z,24.03
2022-11-15T19:14:24.203Z,20.70
2022-11-15T19:16:52.674Z,24.07
2022-11-15T19:19:22.962Z,21.70
2022-11-15T19:21:50.880Z,22.57
2022-11-15T19:24:18.279Z,23.03
2022-11-15T19:26:46.458Z,22.67
2022-11-15T19:29:18.220Z,20.73
2022-11-15T19:31:47.631Z,20.17
2022-11-15T19:34:15.036Z,19.93
2022-11-15T19:36:44.300Z,19.03
2022-11-15T19:39:13.959Z,20.33
2022-11-15T19:41:43.324Z,20.03
2022-11-15T19:44:12.477Z,19.07
2022-11-15T19:46:40.675Z,21.33
2022-11-15T19:49:10.659Z,18.37
2022-11-15T19:51:39.018Z,17.37
2022-11-15T19:54:08.850Z,18.93
2022-11-15T19:56:36.924Z,16.70
2022-11-15T19:59:05.277Z,18.30
2022-11-15T20:01:39.110Z,18.37
2022-11-15T20:04:08.097Z,18.23
2022-11-15T20:06:41.886Z,15.70
2022-11-15T20:09:13.366Z,16.63
2022-11-15T20:11:40.986Z,17.20
2022-11-15T20:14:09.966Z,17.73
2022-11-15T20:16:37.641Z,18.07
2022-11-15T20:19:05.267Z,15.47
2022-11-15T20:21:32.766Z,18.80
2022-11-15T20:24:00.446Z,15.37
2022-11-15T20:26:29.074Z,18.77
2022-11-15T20:29:01.065Z,18.80
2022-11-15T20:31:29.646Z,18.60
2022-11-15T20:33:56.983Z,17.60
2022-11-15T20:36:24.372Z,19.50
2022-11-15T20:38:55.889Z,18.60
2022-11-15T20:41:23.279Z,18.33
2022-11-15T20:43:50.959Z,18.87
2022-11-15T20:46:19.808Z,19.40
2022-11-15T20:48:47.102Z,18.80
2022-11-15T20:51:18.683Z,20.67
2022-11-15T20:53:47.392Z,18.03
2022-11-15T20:56:17.980Z,19.57
2022-11-15T20:58:46.301Z,17.33
2022-11-15T21:01:15.595Z,18.37
2022-11-15T21:03:43.742Z,16.70
2022-11-15T21:06:11.579Z,18.67
2022-11-15T21:08:57.547Z,17.77
2022-11-15T21:11:44.289Z,18.87
2022-11-15T21:14:12.079Z,16.67
2022-11-15T21:16:39.480Z,15.83
2022-11-15T21:19:07.266Z,17.17
2022-11-15T21:21:36.119Z,19.07
2022-11-15T21:24:05.101Z,17.77
2022-11-15T21:26:33.207Z,15.93
2022-11-15T21:29:00.672Z,15.60
2022-11-15T21:31:28.299Z,17.07
2022-11-15T21:33:55.672Z,15.57
2022-11-15T21:36:25.047Z,16.03
2022-11-15T21:39:11.420Z,17.00
2022-11-15T21:41:38.885Z,15.90
2022-11-15T21:44:06.894Z,14.60
2022-11-15T21:46:35.234Z,17.00
2022-11-15T21:49:03.419Z,14.93
2022-11-15T21:51:31.548Z,14.53
2022-11-15T21:53:59.472Z,16.10
2022-11-15T21:56:30.090Z,15.17
2022-11-15T21:58:57.565Z,15.27
2022-11-15T22:01:44.924Z,12.90
2022-11-15T22:04:13.167Z,14.57
2022-11-15T22:06:40.549Z,14.87
2022-11-15T22:09:08.212Z,14.33
2022-11-15T22:11:36.013Z,15.37
2022-11-15T22:14:03.854Z,13.43
2022-11-15T22:16:31.914Z,14.27
2022-11-15T22:19:00.829Z,13.63
2022-11-15T22:21:28.234Z,14.20
2022-11-15T22:23:55.733Z,14.43
2022-11-15T22:26:24.051Z,15.57
2022-11-15T22:28:51.908Z,13.03
2022-11-15T22:31:19.369Z,13.23
2022-11-15T22:33:47.268Z,12.93
2022-11-15T22:36:14.570Z,13.20
2022-11-15T22:38:42.198Z,14.27
2022-11-15T22:41:09.604Z,12.80
2022-11-15T22:43:37.416Z,12.67
2022-11-15T22:46:05.244Z,12.00
2022-11-15T22:48:38.702Z,15.37
2022-11-15T22:51:07.582Z,15.10
2022-11-15T22:53:35.479Z,11.67
2022-11-15T22:56:04.895Z,12.90
2022-11-15T22:58:33.652Z,12.17
2022-11-15T23:01:03.889Z,14.30
2022-11-15T23:03:32.636Z,13.70
2022-11-15T23:06:07.618Z,11.83
2022-11-15T23:08:35.555Z,11.53
2022-11-15T23:11:34.086Z,11.43
2022-11-15T23:14:01.566Z,13.30
2022-11-15T23:16:34.723Z,12.80
2022-11-15T23:19:08.328Z,13.87
2022-11-15T23:21:57.108Z,11.90
2022-11-15T23:24:24.925Z,12.30
2022-11-15T23:26:55.212Z,10.03
2022-11-15T23:29:25.192Z,11.03
2022-11-15T23:32:12.506Z,12.43
2022-11-15T23:34:42.315Z,12.10
2022-11-15T23:37:13.336Z,11.40
2022-11-15T23:39:41.206Z,14.27
2022-11-15T23:42:09.585Z,11.03
2022-11-15T23:44:37.628Z,11.37
2022-11-15T23:47:05.098Z,11.83
2022-11-15T23:49:32.731Z,11.17
2022-11-15T23:52:00.113Z,11.77
2022-11-15T23:54:27.750Z,11.10
2022-11-15T23:56:55.067Z,12.90
2022-11-15T23:59:22.443Z,11.37
